sensor_id;sensor_type;location;lat;lon;timestamp;temperature;humidity
60848;DHT22;46681;47.696;9.140;2023-07-31T00:00:37;19.50;52.60
60848;DHT22;46681;47.696;9.140;2023-07-31T00:03:02;19.40;52.40
60848;DHT22;46681;47.696;9.140;2023-07-31T00:05:28;19.40;52.40
60848;DHT22;46681;47.696;9.140;2023-07-31T00:07:53;19.30;52.50
60848;DHT22;46681;47.696;9.140;2023-07-31T00:10:19;19.30;52.60
60848;DHT22;46681;47.696;9.140;2023-07-31T00:12:45;19.40;52.70
60848;DHT22;46681;47.696;9.140;2023-07-31T00:15:14;19.30;52.80
60848;DHT22;46681;47.696;9.140;2023-07-31T00:17:41;19.30;52.60
60848;DHT22;46681;47.696;9.140;2023-07-31T00:20:09;19.20;52.90
60848;DHT22;46681;47.696;9.140;2023-07-31T00:22:35;19.20;52.70
60848;DHT22;46681;47.696;9.140;2023-07-31T00:25:01;19.20;53.10
60848;DHT22;46681;47.696;9.140;2023-07-31T00:27:26;19.20;53.10
60848;DHT22;46681;47.696;9.140;2023-07-31T00:29:51;19.20;53.00
60848;DHT22;46681;47.696;9.140;2023-07-31T00:32:17;19.20;53.20
60848;DHT22;46681;47.696;9.140;2023-07-31T00:34:42;19.20;53.10
60848;DHT22;46681;47.696;9.140;2023-07-31T00:37:11;19.20;53.20
60848;DHT22;46681;47.696;9.140;2023-07-31T00:39:37;19.10;53.20
60848;DHT22;46681;47.696;9.140;2023-07-31T00:42:02;19.10;53.10
60848;DHT22;46681;47.696;9.140;2023-07-31T00:44:28;19.10;53.30
60848;DHT22;46681;47.696;9.140;2023-07-31T00:46:56;19.10;53.30
60848;DHT22;46681;47.696;9.140;2023-07-31T00:49:22;19.10;53.30
60848;DHT22;46681;47.696;9.140;2023-07-31T00:51:48;19.10;53.30
60848;DHT22;46681;47.696;9.140;2023-07-31T00:54:14;19.00;53.20
60848;DHT22;46681;47.696;9.140;2023-07-31T00:56:42;19.00;53.50
60848;DHT22;46681;47.696;9.140;2023-07-31T00:59:11;19.00;53.50
60848;DHT22;46681;47.696;9.140;2023-07-31T01:01:37;19.00;53.70
60848;DHT22;46681;47.696;9.140;2023-07-31T01:04:03;18.90;53.70
60848;DHT22;46681;47.696;9.140;2023-07-31T01:12:27;18.90;53.70
60848;DHT22;46681;47.696;9.140;2023-07-31T01:17:27;18.90;53.90
60848;DHT22;46681;47.696;9.140;2023-07-31T01:19:55;18.80;53.80
60848;DHT22;46681;47.696;9.140;2023-07-31T01:27:47;18.80;54.00
60848;DHT22;46681;47.696;9.140;2023-07-31T01:30:21;18.80;54.10
60848;DHT22;46681;47.696;9.140;2023-07-31T01:32:48;18.80;54.20
60848;DHT22;46681;47.696;9.140;2023-07-31T01:35:15;18.70;54.10
60848;DHT22;46681;47.696;9.140;2023-07-31T01:37:41;18.70;54.10
60848;DHT22;46681;47.696;9.140;2023-07-31T01:40:09;18.70;54.10
60848;DHT22;46681;47.696;9.140;2023-07-31T01:42:34;18.70;54.20
60848;DHT22;46681;47.696;9.140;2023-07-31T01:45:00;18.70;54.10
60848;DHT22;46681;47.696;9.140;2023-07-31T01:47:25;18.70;54.20
60848;DHT22;46681;47.696;9.140;2023-07-31T01:49:51;18.70;54.30
60848;DHT22;46681;47.696;9.140;2023-07-31T01:52:16;18.70;54.20
60848;DHT22;46681;47.696;9.140;2023-07-31T01:54:42;18.60;54.40
60848;DHT22;46681;47.696;9.140;2023-07-31T01:57:09;18.60;54.10
60848;DHT22;46681;47.696;9.140;2023-07-31T01:59:36;18.60;54.20
60848;DHT22;46681;47.696;9.140;2023-07-31T02:02:02;18.60;54.40
60848;DHT22;46681;47.696;9.140;2023-07-31T02:04:27;18.60;54.40
60848;DHT22;46681;47.696;9.140;2023-07-31T02:06:53;18.60;54.30
60848;DHT22;46681;47.696;9.140;2023-07-31T02:09:18;18.50;54.30
60848;DHT22;46681;47.696;9.140;2023-07-31T02:11:44;18.50;54.30
60848;DHT22;46681;47.696;9.140;2023-07-31T02:14:11;18.50;54.40
60848;DHT22;46681;47.696;9.140;2023-07-31T02:16:39;18.50;54.50
60848;DHT22;46681;47.696;9.140;2023-07-31T02:19:04;18.50;54.30
60848;DHT22;46681;47.696;9.140;2023-07-31T02:21:30;18.50;54.40
60848;DHT22;46681;47.696;9.140;2023-07-31T02:23:55;18.40;54.40
60848;DHT22;46681;47.696;9.140;2023-07-31T02:26:21;18.40;54.40
60848;DHT22;46681;47.696;9.140;2023-07-31T02:28:46;18.40;54.40
60848;DHT22;46681;47.696;9.140;2023-07-31T02:31:12;18.40;54.50
60848;DHT22;46681;47.696;9.140;2023-07-31T02:33:37;18.40;54.70
60848;DHT22;46681;47.696;9.140;2023-07-31T02:36:03;18.40;54.60
60848;DHT22;46681;47.696;9.140;2023-07-31T02:38:32;18.40;54.50
60848;DHT22;46681;47.696;9.140;2023-07-31T02:40:57;18.40;54.60
60848;DHT22;46681;47.696;9.140;2023-07-31T02:43:23;18.30;54.40
60848;DHT22;46681;47.696;9.140;2023-07-31T02:45:52;18.30;54.60
60848;DHT22;46681;47.696;9.140;2023-07-31T02:48:18;18.30;54.60
60848;DHT22;46681;47.696;9.140;2023-07-31T02:50:43;18.30;54.80
60848;DHT22;46681;47.696;9.140;2023-07-31T02:53:09;18.30;54.70
60848;DHT22;46681;47.696;9.140;2023-07-31T02:55:35;18.30;54.90
60848;DHT22;46681;47.696;9.140;2023-07-31T02:58:00;18.30;54.70
60848;DHT22;46681;47.696;9.140;2023-07-31T03:00:26;18.30;54.90
60848;DHT22;46681;47.696;9.140;2023-07-31T03:02:54;18.30;54.80
60848;DHT22;46681;47.696;9.140;2023-07-31T03:05:19;18.20;54.90
60848;DHT22;46681;47.696;9.140;2023-07-31T03:07:45;18.20;54.80
60848;DHT22;46681;47.696;9.140;2023-07-31T03:10:12;18.20;54.80
60848;DHT22;46681;47.696;9.140;2023-07-31T03:12:37;18.20;54.90
60848;DHT22;46681;47.696;9.140;2023-07-31T03:15:03;18.20;55.00
60848;DHT22;46681;47.696;9.140;2023-07-31T03:17:29;18.20;55.00
60848;DHT22;46681;47.696;9.140;2023-07-31T03:19:54;18.10;54.90
60848;DHT22;46681;47.696;9.140;2023-07-31T03:22:20;18.10;54.90
60848;DHT22;46681;47.696;9.140;2023-07-31T03:24:45;18.10;55.00
60848;DHT22;46681;47.696;9.140;2023-07-31T03:27:12;18.10;54.90
60848;DHT22;46681;47.696;9.140;2023-07-31T03:29:37;18.10;54.90
60848;DHT22;46681;47.696;9.140;2023-07-31T03:32:03;18.10;55.00
60848;DHT22;46681;47.696;9.140;2023-07-31T03:34:29;18.10;54.90
60848;DHT22;46681;47.696;9.140;2023-07-31T03:36:54;18.10;55.00
60848;DHT22;46681;47.696;9.140;2023-07-31T03:39:20;18.00;54.90
60848;DHT22;46681;47.696;9.140;2023-07-31T03:41:45;18.00;55.20
60848;DHT22;46681;47.696;9.140;2023-07-31T03:44:11;18.00;55.10
60848;DHT22;46681;47.696;9.140;2023-07-31T03:46:40;18.00;55.00
60848;DHT22;46681;47.696;9.140;2023-07-31T03:49:08;18.00;55.10
60848;DHT22;46681;47.696;9.140;2023-07-31T03:51:34;18.00;55.10
60848;DHT22;46681;47.696;9.140;2023-07-31T03:54:04;18.00;55.20
60848;DHT22;46681;47.696;9.140;2023-07-31T03:56:29;18.00;55.20
60848;DHT22;46681;47.696;9.140;2023-07-31T03:58:55;18.00;55.20
60848;DHT22;46681;47.696;9.140;2023-07-31T04:01:22;18.00;55.10
60848;DHT22;46681;47.696;9.140;2023-07-31T04:03:47;18.00;55.20
60848;DHT22;46681;47.696;9.140;2023-07-31T04:06:13;18.00;55.20
60848;DHT22;46681;47.696;9.140;2023-07-31T04:08:41;17.90;55.10
60848;DHT22;46681;47.696;9.140;2023-07-31T04:11:07;17.90;55.10
60848;DHT22;46681;47.696;9.140;2023-07-31T04:13:34;18.00;55.10
60848;DHT22;46681;47.696;9.140;2023-07-31T04:15:59;18.00;55.20
60848;DHT22;46681;47.696;9.140;2023-07-31T04:18:25;18.00;55.20
60848;DHT22;46681;47.696;9.140;2023-07-31T04:20:51;18.00;55.10
60848;DHT22;46681;47.696;9.140;2023-07-31T04:23:16;18.00;55.80
60848;DHT22;46681;47.696;9.140;2023-07-31T04:25:42;17.90;55.60
60848;DHT22;46681;47.696;9.140;2023-07-31T04:28:09;18.00;55.60
60848;DHT22;46681;47.696;9.140;2023-07-31T04:30:35;18.00;55.50
60848;DHT22;46681;47.696;9.140;2023-07-31T04:33:00;18.00;55.50
60848;DHT22;46681;47.696;9.140;2023-07-31T04:35:30;18.00;55.50
60848;DHT22;46681;47.696;9.140;2023-07-31T04:37:56;18.10;55.50
60848;DHT22;46681;47.696;9.140;2023-07-31T04:40:21;18.10;55.50
60848;DHT22;46681;47.696;9.140;2023-07-31T04:42:47;18.10;55.50
60848;DHT22;46681;47.696;9.140;2023-07-31T04:45:17;18.10;55.50
60848;DHT22;46681;47.696;9.140;2023-07-31T04:47:45;18.10;55.40
60848;DHT22;46681;47.696;9.140;2023-07-31T04:50:12;18.10;55.40
60848;DHT22;46681;47.696;9.140;2023-07-31T04:52:37;18.20;55.70
60848;DHT22;46681;47.696;9.140;2023-07-31T04:55:08;18.20;56.40
60848;DHT22;46681;47.696;9.140;2023-07-31T04:57:35;18.20;56.90
60848;DHT22;46681;47.696;9.140;2023-07-31T05:00:03;18.30;57.50
60848;DHT22;46681;47.696;9.140;2023-07-31T05:02:30;18.30;57.80
60848;DHT22;46681;47.696;9.140;2023-07-31T05:04:56;18.30;58.00
60848;DHT22;46681;47.696;9.140;2023-07-31T05:07:21;18.30;58.10
60848;DHT22;46681;47.696;9.140;2023-07-31T05:09:47;18.30;58.70
60848;DHT22;46681;47.696;9.140;2023-07-31T05:12:12;18.30;58.60
60848;DHT22;46681;47.696;9.140;2023-07-31T05:14:38;18.30;58.70
60848;DHT22;46681;47.696;9.140;2023-07-31T05:17:08;18.40;58.60
60848;DHT22;46681;47.696;9.140;2023-07-31T05:19:36;18.40;58.70
60848;DHT22;46681;47.696;9.140;2023-07-31T05:22:09;18.50;60.80
60848;DHT22;46681;47.696;9.140;2023-07-31T05:24:37;18.50;59.90
60848;DHT22;46681;47.696;9.140;2023-07-31T05:27:04;18.50;59.30
60848;DHT22;46681;47.696;9.140;2023-07-31T05:29:30;18.60;59.10
60848;DHT22;46681;47.696;9.140;2023-07-31T05:32:00;18.60;59.00
60848;DHT22;46681;47.696;9.140;2023-07-31T05:34:28;18.60;58.90
60848;DHT22;46681;47.696;9.140;2023-07-31T05:36:53;18.70;60.30
60848;DHT22;46681;47.696;9.140;2023-07-31T05:39:19;18.80;62.90
60848;DHT22;46681;47.696;9.140;2023-07-31T05:41:44;18.90;63.10
60848;DHT22;46681;47.696;9.140;2023-07-31T05:44:10;19.00;61.80
60848;DHT22;46681;47.696;9.140;2023-07-31T05:46:35;18.90;60.60
60848;DHT22;46681;47.696;9.140;2023-07-31T05:49:07;18.90;60.00
60848;DHT22;46681;47.696;9.140;2023-07-31T05:51:32;18.90;59.80
60848;DHT22;46681;47.696;9.140;2023-07-31T05:54:06;18.90;59.70
60848;DHT22;46681;47.696;9.140;2023-07-31T05:56:32;19.00;59.80
60848;DHT22;46681;47.696;9.140;2023-07-31T05:59:01;19.00;59.40
60848;DHT22;46681;47.696;9.140;2023-07-31T06:01:26;19.00;59.10
60848;DHT22;46681;47.696;9.140;2023-07-31T06:03:53;19.00;59.00
60848;DHT22;46681;47.696;9.140;2023-07-31T06:06:19;19.00;58.80
60848;DHT22;46681;47.696;9.140;2023-07-31T06:08:49;19.00;58.50
60848;DHT22;46681;47.696;9.140;2023-07-31T06:11:17;19.00;58.20
60848;DHT22;46681;47.696;9.140;2023-07-31T06:13:42;19.00;58.50
60848;DHT22;46681;47.696;9.140;2023-07-31T06:16:11;19.00;57.90
60848;DHT22;46681;47.696;9.140;2023-07-31T06:18:41;19.10;58.40
60848;DHT22;46681;47.696;9.140;2023-07-31T06:21:07;19.10;58.00
60848;DHT22;46681;47.696;9.140;2023-07-31T06:23:35;19.20;57.70
60848;DHT22;46681;47.696;9.140;2023-07-31T06:26:04;19.20;57.50
60848;DHT22;46681;47.696;9.140;2023-07-31T06:28:30;19.20;57.40
60848;DHT22;46681;47.696;9.140;2023-07-31T06:31:00;19.20;57.20
60848;DHT22;46681;47.696;9.140;2023-07-31T06:33:28;19.20;57.10
60848;DHT22;46681;47.696;9.140;2023-07-31T06:36:11;19.30;57.00
60848;DHT22;46681;47.696;9.140;2023-07-31T06:38:41;19.30;56.70
60848;DHT22;46681;47.696;9.140;2023-07-31T06:41:07;19.30;56.60
60848;DHT22;46681;47.696;9.140;2023-07-31T06:43:39;19.30;56.60
60848;DHT22;46681;47.696;9.140;2023-07-31T06:46:09;19.40;56.40
60848;DHT22;46681;47.696;9.140;2023-07-31T06:48:37;19.40;56.30
60848;DHT22;46681;47.696;9.140;2023-07-31T06:51:06;19.40;56.20
60848;DHT22;46681;47.696;9.140;2023-07-31T06:53:33;19.50;56.20
60848;DHT22;46681;47.696;9.140;2023-07-31T06:56:06;19.40;56.00
60848;DHT22;46681;47.696;9.140;2023-07-31T06:58:34;19.50;56.00
60848;DHT22;46681;47.696;9.140;2023-07-31T07:01:02;19.50;55.90
60848;DHT22;46681;47.696;9.140;2023-07-31T07:03:28;19.50;55.80
60848;DHT22;46681;47.696;9.140;2023-07-31T07:05:56;19.60;55.80
60848;DHT22;46681;47.696;9.140;2023-07-31T07:08:21;19.60;55.60
60848;DHT22;46681;47.696;9.140;2023-07-31T07:10:55;19.70;55.60
60848;DHT22;46681;47.696;9.140;2023-07-31T07:13:45;19.70;55.30
60848;DHT22;46681;47.696;9.140;2023-07-31T07:16:19;19.80;55.10
60848;DHT22;46681;47.696;9.140;2023-07-31T07:24:42;20.10;54.30
60848;DHT22;46681;47.696;9.140;2023-07-31T07:27:22;20.20;53.90
60848;DHT22;46681;47.696;9.140;2023-07-31T07:33:06;20.30;53.60
60848;DHT22;46681;47.696;9.140;2023-07-31T07:35:41;20.30;53.40
60848;DHT22;46681;47.696;9.140;2023-07-31T07:38:13;20.40;53.00
60848;DHT22;46681;47.696;9.140;2023-07-31T07:40:58;20.50;53.10
60848;DHT22;46681;47.696;9.140;2023-07-31T07:43:45;20.50;53.00
60848;DHT22;46681;47.696;9.140;2023-07-31T07:46:36;20.60;53.00
60848;DHT22;46681;47.696;9.140;2023-07-31T07:49:10;20.70;52.80
60848;DHT22;46681;47.696;9.140;2023-07-31T07:51:45;20.70;52.60
60848;DHT22;46681;47.696;9.140;2023-07-31T07:54:11;20.80;52.40
60848;DHT22;46681;47.696;9.140;2023-07-31T07:56:48;20.80;52.30
60848;DHT22;46681;47.696;9.140;2023-07-31T07:59:29;20.80;52.20
60848;DHT22;46681;47.696;9.140;2023-07-31T08:01:59;20.90;52.00
60848;DHT22;46681;47.696;9.140;2023-07-31T08:07:40;21.10;52.30
60848;DHT22;46681;47.696;9.140;2023-07-31T08:10:22;21.10;52.10
60848;DHT22;46681;47.696;9.140;2023-07-31T08:13:01;21.20;51.90
60848;DHT22;46681;47.696;9.140;2023-07-31T08:15:44;21.30;51.60
60848;DHT22;46681;47.696;9.140;2023-07-31T08:18:11;21.40;51.50
60848;DHT22;46681;47.696;9.140;2023-07-31T08:20:52;21.50;51.40
60848;DHT22;46681;47.696;9.140;2023-07-31T08:23:33;21.60;51.20
60848;DHT22;46681;47.696;9.140;2023-07-31T08:26:17;21.80;51.40
60848;DHT22;46681;47.696;9.140;2023-07-31T08:28:52;22.00;50.60
60848;DHT22;46681;47.696;9.140;2023-07-31T08:31:25;22.20;50.30
60848;DHT22;46681;47.696;9.140;2023-07-31T08:34:03;22.30;49.90
60848;DHT22;46681;47.696;9.140;2023-07-31T08:36:56;22.40;49.60
60848;DHT22;46681;47.696;9.140;2023-07-31T08:39:27;22.60;49.30
60848;DHT22;46681;47.696;9.140;2023-07-31T08:42:09;22.70;49.10
60848;DHT22;46681;47.696;9.140;2023-07-31T08:45:18;22.90;48.80
60848;DHT22;46681;47.696;9.140;2023-07-31T08:47:51;23.00;48.70
60848;DHT22;46681;47.696;9.140;2023-07-31T08:50:29;23.10;48.50
60848;DHT22;46681;47.696;9.140;2023-07-31T08:53:19;23.20;48.30
60848;DHT22;46681;47.696;9.140;2023-07-31T08:56:08;23.40;48.20
60848;DHT22;46681;47.696;9.140;2023-07-31T08:58:42;23.50;48.00
60848;DHT22;46681;47.696;9.140;2023-07-31T09:01:27;23.60;48.00
60848;DHT22;46681;47.696;9.140;2023-07-31T09:04:12;23.70;47.70
60848;DHT22;46681;47.696;9.140;2023-07-31T09:07:03;23.90;47.60
60848;DHT22;46681;47.696;9.140;2023-07-31T09:09:41;24.00;47.40
60848;DHT22;46681;47.696;9.140;2023-07-31T09:12:35;24.20;47.30
60848;DHT22;46681;47.696;9.140;2023-07-31T09:24:32;24.70;46.30
60848;DHT22;46681;47.696;9.140;2023-07-31T09:27:45;24.90;46.20
60848;DHT22;46681;47.696;9.140;2023-07-31T09:33:23;25.20;45.70
60848;DHT22;46681;47.696;9.140;2023-07-31T09:36:05;25.40;45.50
60848;DHT22;46681;47.696;9.140;2023-07-31T09:54:27;26.00;44.90
60848;DHT22;46681;47.696;9.140;2023-07-31T09:57:25;26.20;44.70
60848;DHT22;46681;47.696;9.140;2023-07-31T10:06:38;26.60;44.20
60848;DHT22;46681;47.696;9.140;2023-07-31T10:13:03;26.90;44.00
60848;DHT22;46681;47.696;9.140;2023-07-31T11:14:07;29.20;42.50
60848;DHT22;46681;47.696;9.140;2023-07-31T12:46:18;31.10;41.20
60848;DHT22;46681;47.696;9.140;2023-07-31T13:25:58;31.00;41.80
60848;DHT22;46681;47.696;9.140;2023-07-31T13:35:15;31.50;40.90
60848;DHT22;46681;47.696;9.140;2023-07-31T15:25:39;30.20;41.90
60848;DHT22;46681;47.696;9.140;2023-07-31T15:31:43;30.00;41.80
60848;DHT22;46681;47.696;9.140;2023-07-31T15:43:41;29.60;42.30
60848;DHT22;46681;47.696;9.140;2023-07-31T15:46:35;29.50;42.30
60848;DHT22;46681;47.696;9.140;2023-07-31T16:04:15;29.30;42.40
60848;DHT22;46681;47.696;9.140;2023-07-31T16:16:33;29.10;42.40
60848;DHT22;46681;47.696;9.140;2023-07-31T16:19:35;29.00;42.70
60848;DHT22;46681;47.696;9.140;2023-07-31T16:28:14;28.60;43.80
60848;DHT22;46681;47.696;9.140;2023-07-31T16:31:19;28.50;44.00
60848;DHT22;46681;47.696;9.140;2023-07-31T16:34:10;28.50;43.30
60848;DHT22;46681;47.696;9.140;2023-07-31T16:40:11;28.40;42.70
60848;DHT22;46681;47.696;9.140;2023-07-31T16:46:11;28.30;42.90
60848;DHT22;46681;47.696;9.140;2023-07-31T16:49:11;28.30;43.30
60848;DHT22;46681;47.696;9.140;2023-07-31T16:57:44;28.10;42.80
60848;DHT22;46681;47.696;9.140;2023-07-31T17:00:49;28.10;43.20
60848;DHT22;46681;47.696;9.140;2023-07-31T17:03:19;28.00;43.30
60848;DHT22;46681;47.696;9.140;2023-07-31T17:09:02;27.90;43.20
60848;DHT22;46681;47.696;9.140;2023-07-31T17:17:58;27.70;42.80
60848;DHT22;46681;47.696;9.140;2023-07-31T17:21:06;27.60;43.20
60848;DHT22;46681;47.696;9.140;2023-07-31T17:23:57;27.60;43.20
60848;DHT22;46681;47.696;9.140;2023-07-31T17:29:55;27.50;43.40
60848;DHT22;46681;47.696;9.140;2023-07-31T17:32:50;27.40;43.40
60848;DHT22;46681;47.696;9.140;2023-07-31T17:35:24;27.40;43.50
60848;DHT22;46681;47.696;9.140;2023-07-31T17:37:58;27.30;43.70
60848;DHT22;46681;47.696;9.140;2023-07-31T17:40:27;27.30;43.90
60848;DHT22;46681;47.696;9.140;2023-07-31T17:43:28;27.20;43.90
60848;DHT22;46681;47.696;9.140;2023-07-31T17:46:03;27.20;44.00
60848;DHT22;46681;47.696;9.140;2023-07-31T17:49:01;27.10;44.10
60848;DHT22;46681;47.696;9.140;2023-07-31T17:57:07;27.00;44.50
60848;DHT22;46681;47.696;9.140;2023-07-31T17:59:36;26.90;44.60
60848;DHT22;46681;47.696;9.140;2023-07-31T18:02:12;26.90;44.50
60848;DHT22;46681;47.696;9.140;2023-07-31T18:05:08;26.80;44.70
60848;DHT22;46681;47.696;9.140;2023-07-31T18:11:15;26.70;44.80
60848;DHT22;46681;47.696;9.140;2023-07-31T18:13:54;26.70;45.00
60848;DHT22;46681;47.696;9.140;2023-07-31T18:16:36;26.60;45.10
60848;DHT22;46681;47.696;9.140;2023-07-31T18:22:29;26.50;45.20
60848;DHT22;46681;47.696;9.140;2023-07-31T18:25:04;26.50;45.20
60848;DHT22;46681;47.696;9.140;2023-07-31T18:27:41;26.40;45.20
60848;DHT22;46681;47.696;9.140;2023-07-31T18:30:39;26.30;45.20
60848;DHT22;46681;47.696;9.140;2023-07-31T18:33:11;26.30;45.30
60848;DHT22;46681;47.696;9.140;2023-07-31T18:35:43;26.30;45.30
60848;DHT22;46681;47.696;9.140;2023-07-31T18:38:08;26.20;45.40
60848;DHT22;46681;47.696;9.140;2023-07-31T18:40:55;26.10;45.40
60848;DHT22;46681;47.696;9.140;2023-07-31T18:43:26;26.00;45.50
60848;DHT22;46681;47.696;9.140;2023-07-31T18:45:53;25.80;45.90
60848;DHT22;46681;47.696;9.140;2023-07-31T18:48:44;25.70;47.10
60848;DHT22;46681;47.696;9.140;2023-07-31T18:54:14;25.60;46.80
60848;DHT22;46681;47.696;9.140;2023-07-31T18:56:47;25.60;47.20
60848;DHT22;46681;47.696;9.140;2023-07-31T18:59:25;25.50;47.10
60848;DHT22;46681;47.696;9.140;2023-07-31T19:01:52;25.50;47.30
60848;DHT22;46681;47.696;9.140;2023-07-31T19:04:21;25.50;47.50
60848;DHT22;46681;47.696;9.140;2023-07-31T19:07:05;25.50;47.50
60848;DHT22;46681;47.696;9.140;2023-07-31T19:09:34;25.40;47.50
60848;DHT22;46681;47.696;9.140;2023-07-31T19:12:04;25.40;47.50
60848;DHT22;46681;47.696;9.140;2023-07-31T19:17:26;25.30;47.40
60848;DHT22;46681;47.696;9.140;2023-07-31T19:19:53;25.20;47.50
60848;DHT22;46681;47.696;9.140;2023-07-31T19:22:27;25.20;47.40
60848;DHT22;46681;47.696;9.140;2023-07-31T19:25:27;25.20;47.30
60848;DHT22;46681;47.696;9.140;2023-07-31T19:28:24;25.10;47.50
60848;DHT22;46681;47.696;9.140;2023-07-31T19:31:08;25.00;47.50
60848;DHT22;46681;47.696;9.140;2023-07-31T19:33:51;25.00;47.40
60848;DHT22;46681;47.696;9.140;2023-07-31T19:36:25;24.90;47.70
60848;DHT22;46681;47.696;9.140;2023-07-31T19:38:55;24.90;47.80
60848;DHT22;46681;47.696;9.140;2023-07-31T19:41:23;24.80;47.80
60848;DHT22;46681;47.696;9.140;2023-07-31T19:43:52;24.80;48.00
60848;DHT22;46681;47.696;9.140;2023-07-31T19:46:24;24.70;47.60
60848;DHT22;46681;47.696;9.140;2023-07-31T19:49:04;24.70;48.00
60848;DHT22;46681;47.696;9.140;2023-07-31T19:51:31;24.60;48.10
60848;DHT22;46681;47.696;9.140;2023-07-31T19:53:57;24.60;47.90
60848;DHT22;46681;47.696;9.140;2023-07-31T19:56:31;24.50;48.20
60848;DHT22;46681;47.696;9.140;2023-07-31T19:59:02;24.50;48.20
60848;DHT22;46681;47.696;9.140;2023-07-31T20:01:31;24.40;48.30
60848;DHT22;46681;47.696;9.140;2023-07-31T20:04:04;24.40;48.50
60848;DHT22;46681;47.696;9.140;2023-07-31T20:06:30;24.30;48.40
60848;DHT22;46681;47.696;9.140;2023-07-31T20:08:57;24.30;48.40
60848;DHT22;46681;47.696;9.140;2023-07-31T20:11:27;24.30;48.70
60848;DHT22;46681;47.696;9.140;2023-07-31T20:13:56;24.20;48.80
60848;DHT22;46681;47.696;9.140;2023-07-31T20:16:34;24.20;48.90
60848;DHT22;46681;47.696;9.140;2023-07-31T20:19:07;24.10;49.00
60848;DHT22;46681;47.696;9.140;2023-07-31T20:21:37;24.10;48.80
60848;DHT22;46681;47.696;9.140;2023-07-31T20:24:10;24.10;48.90
60848;DHT22;46681;47.696;9.140;2023-07-31T20:26:36;24.00;48.80
60848;DHT22;46681;47.696;9.140;2023-07-31T20:29:04;24.00;48.90
60848;DHT22;46681;47.696;9.140;2023-07-31T20:31:32;23.90;49.20
60848;DHT22;46681;47.696;9.140;2023-07-31T20:33:58;23.90;49.20
60848;DHT22;46681;47.696;9.140;2023-07-31T20:36:30;23.90;49.30
60848;DHT22;46681;47.696;9.140;2023-07-31T20:38:55;23.80;49.00
60848;DHT22;46681;47.696;9.140;2023-07-31T20:41:21;23.80;49.10
60848;DHT22;46681;47.696;9.140;2023-07-31T20:43:46;23.80;49.40
60848;DHT22;46681;47.696;9.140;2023-07-31T20:46:18;23.70;49.40
60848;DHT22;46681;47.696;9.140;2023-07-31T20:48:48;23.70;49.70
60848;DHT22;46681;47.696;9.140;2023-07-31T20:51:16;23.70;49.70
60848;DHT22;46681;47.696;9.140;2023-07-31T20:53:44;23.70;49.70
60848;DHT22;46681;47.696;9.140;2023-07-31T20:56:18;23.60;49.90
60848;DHT22;46681;47.696;9.140;2023-07-31T20:58:55;23.60;49.60
60848;DHT22;46681;47.696;9.140;2023-07-31T21:01:21;23.50;49.90
60848;DHT22;46681;47.696;9.140;2023-07-31T21:03:50;23.50;50.00
60848;DHT22;46681;47.696;9.140;2023-07-31T21:06:18;23.50;49.80
60848;DHT22;46681;47.696;9.140;2023-07-31T21:08:43;23.50;50.00
60848;DHT22;46681;47.696;9.140;2023-07-31T21:11:10;23.40;50.00
60848;DHT22;46681;47.696;9.140;2023-07-31T21:13:37;23.40;50.20
60848;DHT22;46681;47.696;9.140;2023-07-31T21:16:03;23.30;50.00
60848;DHT22;46681;47.696;9.140;2023-07-31T21:18:29;23.30;50.20
60848;DHT22;46681;47.696;9.140;2023-07-31T21:20:55;23.30;50.40
60848;DHT22;46681;47.696;9.140;2023-07-31T21:23:26;23.30;50.30
60848;DHT22;46681;47.696;9.140;2023-07-31T21:25:52;23.30;50.20
60848;DHT22;46681;47.696;9.140;2023-07-31T21:28:20;23.20;50.50
60848;DHT22;46681;47.696;9.140;2023-07-31T21:30:54;23.20;50.30
60848;DHT22;46681;47.696;9.140;2023-07-31T21:33:35;23.20;50.40
60848;DHT22;46681;47.696;9.140;2023-07-31T21:36:01;23.20;50.30
60848;DHT22;46681;47.696;9.140;2023-07-31T21:38:26;23.10;50.50
60848;DHT22;46681;47.696;9.140;2023-07-31T21:40:52;23.10;50.70
60848;DHT22;46681;47.696;9.140;2023-07-31T21:43:20;23.00;50.30
60848;DHT22;46681;47.696;9.140;2023-07-31T21:45:49;23.10;50.70
60848;DHT22;46681;47.696;9.140;2023-07-31T21:48:15;23.00;50.80
60848;DHT22;46681;47.696;9.140;2023-07-31T21:50:44;23.00;50.80
60848;DHT22;46681;47.696;9.140;2023-07-31T21:53:12;23.00;50.70
60848;DHT22;46681;47.696;9.140;2023-07-31T21:55:40;23.00;50.80
60848;DHT22;46681;47.696;9.140;2023-07-31T21:58:12;23.00;51.10
60848;DHT22;46681;47.696;9.140;2023-07-31T22:00:37;22.90;50.80
60848;DHT22;46681;47.696;9.140;2023-07-31T22:03:03;22.90;51.10
60848;DHT22;46681;47.696;9.140;2023-07-31T22:05:28;22.90;51.10
60848;DHT22;46681;47.696;9.140;2023-07-31T22:07:55;22.80;51.20
60848;DHT22;46681;47.696;9.140;2023-07-31T22:10:21;22.80;51.20
60848;DHT22;46681;47.696;9.140;2023-07-31T22:12:46;22.80;51.30
60848;DHT22;46681;47.696;9.140;2023-07-31T22:15:12;22.80;51.20
60848;DHT22;46681;47.696;9.140;2023-07-31T22:17:37;22.70;51.20
60848;DHT22;46681;47.696;9.140;2023-07-31T22:20:03;22.70;51.20
60848;DHT22;46681;47.696;9.140;2023-07-31T22:22:28;22.70;51.30
60848;DHT22;46681;47.696;9.140;2023-07-31T22:24:54;22.60;51.40
60848;DHT22;46681;47.696;9.140;2023-07-31T22:27:19;22.60;51.40
60848;DHT22;46681;47.696;9.140;2023-07-31T22:29:49;22.60;51.50
60848;DHT22;46681;47.696;9.140;2023-07-31T22:32:15;22.60;51.70
60848;DHT22;46681;47.696;9.140;2023-07-31T22:34:44;22.60;51.60
60848;DHT22;46681;47.696;9.140;2023-07-31T22:37:10;22.60;51.60
60848;DHT22;46681;47.696;9.140;2023-07-31T22:39:44;22.50;51.70
60848;DHT22;46681;47.696;9.140;2023-07-31T22:42:17;22.50;51.40
60848;DHT22;46681;47.696;9.140;2023-07-31T22:44:49;22.50;51.70
60848;DHT22;46681;47.696;9.140;2023-07-31T22:47:14;22.50;52.00
60848;DHT22;46681;47.696;9.140;2023-07-31T22:49:43;22.50;51.90
60848;DHT22;46681;47.696;9.140;2023-07-31T22:52:16;22.40;52.00
60848;DHT22;46681;47.696;9.140;2023-07-31T22:54:46;22.40;52.00
60848;DHT22;46681;47.696;9.140;2023-07-31T22:57:15;22.40;52.10
60848;DHT22;46681;47.696;9.140;2023-07-31T22:59:43;22.40;52.10
60848;DHT22;46681;47.696;9.140;2023-07-31T23:02:14;22.30;52.10
60848;DHT22;46681;47.696;9.140;2023-07-31T23:04:43;22.30;52.30
60848;DHT22;46681;47.696;9.140;2023-07-31T23:07:10;22.30;52.40
60848;DHT22;46681;47.696;9.140;2023-07-31T23:09:38;22.30;52.40
60848;DHT22;46681;47.696;9.140;2023-07-31T23:12:05;22.20;52.40
60848;DHT22;46681;47.696;9.140;2023-07-31T23:14:31;22.30;52.50
60848;DHT22;46681;47.696;9.140;2023-07-31T23:16:57;22.20;52.30
60848;DHT22;46681;47.696;9.140;2023-07-31T23:19:25;22.20;52.60
60848;DHT22;46681;47.696;9.140;2023-07-31T23:21:51;22.20;52.60
60848;DHT22;46681;47.696;9.140;2023-07-31T23:24:18;22.20;52.70
60848;DHT22;46681;47.696;9.140;2023-07-31T23:26:43;22.20;52.70